sensor_id;sensor_type;location;lat;lon;timestamp;pressure;altitude;pressure_sealevel;temperature;humidity
62928;BME280;51070;52.236;-0.892;2023-03-16T00:00:52;100023.34;;;6.71;100.00
62928;BME280;51070;52.236;-0.892;2023-03-16T00:03:18;100018.55;;;6.72;100.00
62928;BME280;51070;52.236;-0.892;2023-03-16T00:05:48;100012.41;;;6.73;100.00
62928;BME280;51070;52.236;-0.892;2023-03-16T00:08:15;100011.23;;;6.73;100.00
62928;BME280;51070;52.236;-0.892;2023-03-16T00:10:41;100012.64;;;6.74;100.00
62928;BME280;51070;52.236;-0.892;2023-03-16T00:13:22;100002.69;;;6.75;100.00
62928;BME280;51070;52.236;-0.892;2023-03-16T00:15:56;100007.38;;;6.77;100.00
62928;BME280;51070;52.236;-0.892;2023-03-16T00:18:23;100009.45;;;6.77;100.00
62928;BME280;51070;52.236;-0.892;2023-03-16T00:20:58;100003.26;;;6.77;100.00
62928;BME280;51070;52.236;-0.892;2023-03-16T00:23:24;100001.77;;;6.78;100.00
62928;BME280;51070;52.236;-0.892;2023-03-16T00:25:57;99992.50;;;6.78;100.00
62928;BME280;51070;52.236;-0.892;2023-03-16T00:28:24;99991.32;;;6.79;100.00
62928;BME280;51070;52.236;-0.892;2023-03-16T00:30:50;99985.27;;;6.78;100.00
62928;BME280;51070;52.236;-0.892;2023-03-16T00:33:15;99985.27;;;6.78;100.00
62928;BME280;51070;52.236;-0.892;2023-03-16T00:35:45;99988.52;;;6.77;100.00
62928;BME280;51070;52.236;-0.892;2023-03-16T00:38:16;99978.08;;;6.78;100.00
62928;BME280;51070;52.236;-0.892;2023-03-16T00:40:41;99981.19;;;6.79;100.00
62928;BME280;51070;52.236;-0.892;2023-03-16T00:43:07;99978.13;;;6.80;100.00
62928;BME280;51070;52.236;-0.892;2023-03-16T00:45:32;99969.40;;;6.81;100.00
62928;BME280;51070;52.236;-0.892;2023-03-16T00:47:57;99962.55;;;6.81;100.00
62928;BME280;51070;52.236;-0.892;2023-03-16T00:50:23;99959.01;;;6.83;100.00
62928;BME280;51070;52.236;-0.892;2023-03-16T00:52:48;99950.65;;;6.84;100.00
62928;BME280;51070;52.236;-0.892;2023-03-16T00:55:18;99948.63;;;6.86;100.00
62928;BME280;51070;52.236;-0.892;2023-03-16T00:57:44;99943.69;;;6.87;100.00
62928;BME280;51070;52.236;-0.892;2023-03-16T01:00:10;99938.46;;;6.89;100.00
62928;BME280;51070;52.236;-0.892;2023-03-16T01:02:39;99931.28;;;6.91;100.00
62928;BME280;51070;52.236;-0.892;2023-03-16T01:05:06;99928.62;;;6.93;100.00
62928;BME280;51070;52.236;-0.892;2023-03-16T01:07:31;99926.98;;;6.95;100.00
62928;BME280;51070;52.236;-0.892;2023-03-16T01:09:57;99919.48;;;6.97;100.00
62928;BME280;51070;52.236;-0.892;2023-03-16T01:12:23;99921.10;;;6.99;100.00
62928;BME280;51070;52.236;-0.892;2023-03-16T01:14:48;99909.48;;;7.01;100.00
62928;BME280;51070;52.236;-0.892;2023-03-16T01:17:15;99909.03;;;7.03;100.00
62928;BME280;51070;52.236;-0.892;2023-03-16T01:19:41;99907.39;;;7.05;100.00
62928;BME280;51070;52.236;-0.892;2023-03-16T01:22:09;99901.27;;;7.08;100.00
62928;BME280;51070;52.236;-0.892;2023-03-16T01:24:36;99900.98;;;7.09;100.00
62928;BME280;51070;52.236;-0.892;2023-03-16T01:27:03;99894.20;;;7.11;100.00
62928;BME280;51070;52.236;-0.892;2023-03-16T01:29:29;99888.89;;;7.12;100.00
62928;BME280;51070;52.236;-0.892;2023-03-16T01:31:55;99884.11;;;7.13;100.00
62928;BME280;51070;52.236;-0.892;2023-03-16T01:34:21;99881.73;;;7.14;100.00
62928;BME280;51070;52.236;-0.892;2023-03-16T01:36:48;99878.00;;;7.15;100.00
62928;BME280;51070;52.236;-0.892;2023-03-16T01:39:14;99867.07;;;7.18;100.00
62928;BME280;51070;52.236;-0.892;2023-03-16T01:41:41;99868.14;;;7.19;100.00
62928;BME280;51070;52.236;-0.892;2023-03-16T01:44:19;99863.22;;;7.21;100.00
62928;BME280;51070;52.236;-0.892;2023-03-16T01:46:47;99856.24;;;7.23;100.00
62928;BME280;51070;52.236;-0.892;2023-03-16T01:49:23;99852.84;;;7.25;100.00
62928;BME280;51070;52.236;-0.892;2023-03-16T01:52:10;99851.19;;;7.26;100.00
62928;BME280;51070;52.236;-0.892;2023-03-16T01:54:43;99850.23;;;7.29;100.00
62928;BME280;51070;52.236;-0.892;2023-03-16T01:57:12;99844.62;;;7.31;100.00
62928;BME280;51070;52.236;-0.892;2023-03-16T01:59:47;99843.83;;;7.33;100.00
62928;BME280;51070;52.236;-0.892;2023-03-16T02:02:19;99840.27;;;7.35;100.00
62928;BME280;51070;52.236;-0.892;2023-03-16T02:04:49;99836.55;;;7.36;100.00
62928;BME280;51070;52.236;-0.892;2023-03-16T02:07:21;99830.63;;;7.39;100.00
62928;BME280;51070;52.236;-0.892;2023-03-16T02:09:50;99829.31;;;7.41;100.00
62928;BME280;51070;52.236;-0.892;2023-03-16T02:12:19;99826.30;;;7.43;100.00
62928;BME280;51070;52.236;-0.892;2023-03-16T02:14:46;99821.70;;;7.44;100.00
62928;BME280;51070;52.236;-0.892;2023-03-16T02:17:13;99820.69;;;7.46;100.00
62928;BME280;51070;52.236;-0.892;2023-03-16T02:22:17;99802.09;;;7.50;100.00
62928;BME280;51070;52.236;-0.892;2023-03-16T02:24:43;99806.58;;;7.51;100.00
62928;BME280;51070;52.236;-0.892;2023-03-16T02:27:12;99804.89;;;7.52;100.00
62928;BME280;51070;52.236;-0.892;2023-03-16T02:29:58;99803.55;;;7.53;100.00
62928;BME280;51070;52.236;-0.892;2023-03-16T02:32:27;99799.64;;;7.54;100.00
62928;BME280;51070;52.236;-0.892;2023-03-16T02:34:55;99798.29;;;7.56;100.00
62928;BME280;51070;52.236;-0.892;2023-03-16T02:37:21;99788.20;;;7.57;100.00
62928;BME280;51070;52.236;-0.892;2023-03-16T02:39:46;99786.38;;;7.59;100.00
62928;BME280;51070;52.236;-0.892;2023-03-16T02:42:14;99771.80;;;7.61;100.00
62928;BME280;51070;52.236;-0.892;2023-03-16T02:44:42;99770.80;;;7.63;100.00
62928;BME280;51070;52.236;-0.892;2023-03-16T02:47:23;99765.19;;;7.65;100.00
62928;BME280;51070;52.236;-0.892;2023-03-16T02:49:51;99769.03;;;7.66;100.00
62928;BME280;51070;52.236;-0.892;2023-03-16T02:52:16;99764.44;;;7.69;100.00
62928;BME280;51070;52.236;-0.892;2023-03-16T02:54:42;99764.16;;;7.71;100.00
62928;BME280;51070;52.236;-0.892;2023-03-16T02:57:07;99764.38;;;7.73;100.00
62928;BME280;51070;52.236;-0.892;2023-03-16T02:59:33;99757.94;;;7.76;100.00
62928;BME280;51070;52.236;-0.892;2023-03-16T03:01:59;99761.61;;;7.78;100.00
62928;BME280;51070;52.236;-0.892;2023-03-16T03:04:24;99759.61;;;7.80;100.00
62928;BME280;51070;52.236;-0.892;2023-03-16T03:06:50;99757.11;;;7.83;100.00
62928;BME280;51070;52.236;-0.892;2023-03-16T03:09:16;99753.59;;;7.86;100.00
62928;BME280;51070;52.236;-0.892;2023-03-16T03:11:43;99758.48;;;7.89;100.00
62928;BME280;51070;52.236;-0.892;2023-03-16T03:14:09;99757.37;;;7.92;100.00
62928;BME280;51070;52.236;-0.892;2023-03-16T03:16:34;99753.16;;;7.96;100.00
62928;BME280;51070;52.236;-0.892;2023-03-16T03:19:00;99754.11;;;7.99;100.00
62928;BME280;51070;52.236;-0.892;2023-03-16T03:21:26;99751.98;;;8.03;100.00
62928;BME280;51070;52.236;-0.892;2023-03-16T03:23:52;99752.95;;;8.07;100.00
62928;BME280;51070;52.236;-0.892;2023-03-16T03:26:18;99749.43;;;8.11;100.00
62928;BME280;51070;52.236;-0.892;2023-03-16T03:28:44;99755.87;;;8.13;100.00
62928;BME280;51070;52.236;-0.892;2023-03-16T03:31:18;99752.35;;;8.17;100.00
62928;BME280;51070;52.236;-0.892;2023-03-16T03:33:44;99751.24;;;8.20;100.00
62928;BME280;51070;52.236;-0.892;2023-03-16T03:36:10;99743.95;;;8.25;100.00
62928;BME280;51070;52.236;-0.892;2023-03-16T03:38:36;99744.02;;;8.27;100.00
62928;BME280;51070;52.236;-0.892;2023-03-16T03:41:03;99740.88;;;8.31;100.00
62928;BME280;51070;52.236;-0.892;2023-03-16T03:43:28;99737.85;;;8.34;100.00
62928;BME280;51070;52.236;-0.892;2023-03-16T03:45:58;99733.78;;;8.37;100.00
62928;BME280;51070;52.236;-0.892;2023-03-16T03:48:25;99728.16;;;8.39;100.00
62928;BME280;51070;52.236;-0.892;2023-03-16T03:50:51;99731.32;;;8.41;100.00
62928;BME280;51070;52.236;-0.892;2023-03-16T03:53:17;99732.90;;;8.42;100.00
62928;BME280;51070;52.236;-0.892;2023-03-16T03:55:42;99734.65;;;8.44;100.00
62928;BME280;51070;52.236;-0.892;2023-03-16T03:58:07;99735.21;;;8.45;100.00
62928;BME280;51070;52.236;-0.892;2023-03-16T04:00:33;99729.05;;;8.46;100.00
62928;BME280;51070;52.236;-0.892;2023-03-16T04:02:58;99723.38;;;8.48;100.00
62928;BME280;51070;52.236;-0.892;2023-03-16T04:05:24;99723.45;;;8.50;100.00
62928;BME280;51070;52.236;-0.892;2023-03-16T04:07:53;99719.89;;;8.52;100.00
62928;BME280;51070;52.236;-0.892;2023-03-16T04:10:30;99719.39;;;8.54;100.00
62928;BME280;51070;52.236;-0.892;2023-03-16T04:12:57;99718.05;;;8.55;100.00
62928;BME280;51070;52.236;-0.892;2023-03-16T04:15:23;99718.26;;;8.56;100.00
62928;BME280;51070;52.236;-0.892;2023-03-16T04:17:49;99717.75;;;8.56;100.00
62928;BME280;51070;52.236;-0.892;2023-03-16T04:20:15;99716.04;;;8.57;100.00
62928;BME280;51070;52.236;-0.892;2023-03-16T04:22:45;99713.11;;;8.57;100.00
62928;BME280;51070;52.236;-0.892;2023-03-16T04:25:12;99710.90;;;8.58;100.00
62928;BME280;51070;52.236;-0.892;2023-03-16T04:27:39;99711.60;;;8.58;100.00
62928;BME280;51070;52.236;-0.892;2023-03-16T04:30:08;99707.30;;;8.58;100.00
62928;BME280;51070;52.236;-0.892;2023-03-16T04:32:36;99703.52;;;8.58;100.00
62928;BME280;51070;52.236;-0.892;2023-03-16T04:35:02;99698.17;;;8.58;100.00
62928;BME280;51070;52.236;-0.892;2023-03-16T04:37:28;99691.10;;;8.58;100.00
62928;BME280;51070;52.236;-0.892;2023-03-16T04:39:54;99688.70;;;8.59;100.00
62928;BME280;51070;52.236;-0.892;2023-03-16T04:42:19;99683.19;;;8.59;100.00
62928;BME280;51070;52.236;-0.892;2023-03-16T04:44:46;99678.89;;;8.60;100.00
62928;BME280;51070;52.236;-0.892;2023-03-16T04:47:14;99681.66;;;8.60;100.00
62928;BME280;51070;52.236;-0.892;2023-03-16T04:49:40;99685.31;;;8.61;100.00
62928;BME280;51070;52.236;-0.892;2023-03-16T04:52:06;99685.15;;;8.62;100.00
62928;BME280;51070;52.236;-0.892;2023-03-16T04:54:33;99684.66;;;8.63;100.00
62928;BME280;51070;52.236;-0.892;2023-03-16T04:56:59;99680.73;;;8.64;100.00
62928;BME280;51070;52.236;-0.892;2023-03-16T04:59:26;99681.98;;;8.66;100.00
62928;BME280;51070;52.236;-0.892;2023-03-16T05:01:52;99679.95;;;8.67;100.00
62928;BME280;51070;52.236;-0.892;2023-03-16T05:04:18;99676.70;;;8.69;100.00
62928;BME280;51070;52.236;-0.892;2023-03-16T05:06:43;99676.39;;;8.70;100.00
62928;BME280;51070;52.236;-0.892;2023-03-16T05:09:08;99680.57;;;8.72;100.00
62928;BME280;51070;52.236;-0.892;2023-03-16T05:11:34;99679.08;;;8.74;100.00
62928;BME280;51070;52.236;-0.892;2023-03-16T05:14:00;99678.92;;;8.75;100.00
62928;BME280;51070;52.236;-0.892;2023-03-16T05:16:29;99678.42;;;8.76;100.00
62928;BME280;51070;52.236;-0.892;2023-03-16T05:18:59;99674.15;;;8.77;100.00
62928;BME280;51070;52.236;-0.892;2023-03-16T05:21:24;99669.02;;;8.78;100.00
62928;BME280;51070;52.236;-0.892;2023-03-16T05:23:50;99667.13;;;8.79;100.00
62928;BME280;51070;52.236;-0.892;2023-03-16T05:26:16;99669.38;;;8.79;100.00
62928;BME280;51070;52.236;-0.892;2023-03-16T05:28:43;99671.27;;;8.79;100.00
62928;BME280;51070;52.236;-0.892;2023-03-16T05:31:08;99667.66;;;8.80;100.00
62928;BME280;51070;52.236;-0.892;2023-03-16T05:33:34;99664.05;;;8.80;100.00
62928;BME280;51070;52.236;-0.892;2023-03-16T05:36:00;99658.91;;;8.81;100.00
62928;BME280;51070;52.236;-0.892;2023-03-16T05:38:27;99661.33;;;8.81;100.00
62928;BME280;51070;52.236;-0.892;2023-03-16T05:40:53;99663.77;;;8.82;100.00
62928;BME280;51070;52.236;-0.892;2023-03-16T05:43:20;99659.45;;;8.82;100.00
62928;BME280;51070;52.236;-0.892;2023-03-16T05:45:46;99663.77;;;8.83;100.00
62928;BME280;51070;52.236;-0.892;2023-03-16T05:48:12;99657.41;;;8.83;100.00
62928;BME280;51070;52.236;-0.892;2023-03-16T05:50:40;99652.23;;;8.83;100.00
62928;BME280;51070;52.236;-0.892;2023-03-16T05:53:06;99657.44;;;8.84;100.00
62928;BME280;51070;52.236;-0.892;2023-03-16T05:55:32;99657.93;;;8.84;100.00
62928;BME280;51070;52.236;-0.892;2023-03-16T05:57:58;99659.84;;;8.84;100.00
62928;BME280;51070;52.236;-0.892;2023-03-16T06:00:24;99659.15;;;8.84;100.00
62928;BME280;51070;52.236;-0.892;2023-03-16T06:02:50;99656.02;;;8.83;100.00
62928;BME280;51070;52.236;-0.892;2023-03-16T06:05:18;99660.34;;;8.83;100.00
62928;BME280;51070;52.236;-0.892;2023-03-16T06:07:44;99660.17;;;8.83;100.00
62928;BME280;51070;52.236;-0.892;2023-03-16T06:10:11;99662.10;;;8.84;100.00
62928;BME280;51070;52.236;-0.892;2023-03-16T06:12:37;99648.81;;;8.84;100.00
62928;BME280;51070;52.236;-0.892;2023-03-16T06:15:04;99652.78;;;8.84;100.00
62928;BME280;51070;52.236;-0.892;2023-03-16T06:17:34;99648.80;;;8.84;100.00
62928;BME280;51070;52.236;-0.892;2023-03-16T06:19:59;99645.34;;;8.83;100.00
62928;BME280;51070;52.236;-0.892;2023-03-16T06:22:26;99641.90;;;8.83;100.00
62928;BME280;51070;52.236;-0.892;2023-03-16T06:24:52;99639.85;;;8.84;100.00
62928;BME280;51070;52.236;-0.892;2023-03-16T06:27:18;99637.30;;;8.85;100.00
62928;BME280;51070;52.236;-0.892;2023-03-16T06:29:49;99634.70;;;8.85;100.00
62928;BME280;51070;52.236;-0.892;2023-03-16T06:32:14;99629.73;;;8.87;100.00
62928;BME280;51070;52.236;-0.892;2023-03-16T06:34:40;99634.58;;;8.88;100.00
62928;BME280;51070;52.236;-0.892;2023-03-16T06:37:05;99634.41;;;8.88;100.00
62928;BME280;51070;52.236;-0.892;2023-03-16T06:39:31;99640.80;;;8.88;100.00
62928;BME280;51070;52.236;-0.892;2023-03-16T06:41:56;99643.75;;;8.89;100.00
62928;BME280;51070;52.236;-0.892;2023-03-16T06:44:22;99647.73;;;8.90;100.00
62928;BME280;51070;52.236;-0.892;2023-03-16T06:46:48;99639.30;;;8.92;100.00
62928;BME280;51070;52.236;-0.892;2023-03-16T06:49:13;99633.83;;;8.93;100.00
62928;BME280;51070;52.236;-0.892;2023-03-16T06:51:38;99640.23;;;8.94;100.00
62928;BME280;51070;52.236;-0.892;2023-03-16T06:54:04;99641.31;;;8.97;100.00
62928;BME280;51070;52.236;-0.892;2023-03-16T06:56:29;99643.92;;;8.98;100.00
62928;BME280;51070;52.236;-0.892;2023-03-16T06:58:56;99636.52;;;8.98;100.00
62928;BME280;51070;52.236;-0.892;2023-03-16T07:01:22;99634.16;;;9.00;100.00
62928;BME280;51070;52.236;-0.892;2023-03-16T07:03:48;99624.54;;;9.01;100.00
62928;BME280;51070;52.236;-0.892;2023-03-16T07:06:14;99610.65;;;9.05;100.00
62928;BME280;51070;52.236;-0.892;2023-03-16T07:08:39;99601.94;;;9.09;100.00
62928;BME280;51070;52.236;-0.892;2023-03-16T07:11:05;99602.36;;;9.13;100.00
62928;BME280;51070;52.236;-0.892;2023-03-16T07:13:30;99603.64;;;9.16;100.00
62928;BME280;51070;52.236;-0.892;2023-03-16T07:15:55;99602.13;;;9.18;100.00
62928;BME280;51070;52.236;-0.892;2023-03-16T07:18:21;99604.55;;;9.19;100.00
62928;BME280;51070;52.236;-0.892;2023-03-16T07:20:46;99614.03;;;9.19;100.00
62928;BME280;51070;52.236;-0.892;2023-03-16T07:23:12;99616.48;;;9.20;100.00
62928;BME280;51070;52.236;-0.892;2023-03-16T07:25:38;99613.91;;;9.20;100.00
62928;BME280;51070;52.236;-0.892;2023-03-16T07:28:03;99615.81;;;9.21;100.00
62928;BME280;51070;52.236;-0.892;2023-03-16T07:30:29;99613.07;;;9.22;100.00
62928;BME280;51070;52.236;-0.892;2023-03-16T07:32:55;99629.52;;;9.25;100.00
62928;BME280;51070;52.236;-0.892;2023-03-16T07:35:21;99633.02;;;9.29;100.00
62928;BME280;51070;52.236;-0.892;2023-03-16T07:37:47;99632.90;;;9.31;100.00
62928;BME280;51070;52.236;-0.892;2023-03-16T07:40:13;99638.48;;;9.35;100.00
62928;BME280;51070;52.236;-0.892;2023-03-16T07:42:40;99638.59;;;9.39;100.00
62928;BME280;51070;52.236;-0.892;2023-03-16T07:45:06;99644.02;;;9.44;100.00
62928;BME280;51070;52.236;-0.892;2023-03-16T07:47:32;99647.39;;;9.49;100.00
62928;BME280;51070;52.236;-0.892;2023-03-16T07:49:58;99642.34;;;9.55;100.00
62928;BME280;51070;52.236;-0.892;2023-03-16T07:52:24;99644.16;;;9.61;100.00
62928;BME280;51070;52.236;-0.892;2023-03-16T07:54:50;99636.15;;;9.65;100.00
62928;BME280;51070;52.236;-0.892;2023-03-16T07:57:16;99639.79;;;9.66;100.00
62928;BME280;51070;52.236;-0.892;2023-03-16T07:59:42;99642.37;;;9.66;100.00
62928;BME280;51070;52.236;-0.892;2023-03-16T08:02:16;99636.67;;;9.65;100.00
62928;BME280;51070;52.236;-0.892;2023-03-16T08:04:42;99641.17;;;9.67;100.00
62928;BME280;51070;52.236;-0.892;2023-03-16T08:07:09;99642.89;;;9.66;100.00
62928;BME280;51070;52.236;-0.892;2023-03-16T08:09:35;99634.66;;;9.68;100.00
62928;BME280;51070;52.236;-0.892;2023-03-16T08:12:02;99639.55;;;9.73;100.00
62928;BME280;51070;52.236;-0.892;2023-03-16T08:14:28;99646.20;;;9.77;100.00
62928;BME280;51070;52.236;-0.892;2023-03-16T08:16:54;99646.83;;;9.83;100.00
62928;BME280;51070;52.236;-0.892;2023-03-16T08:19:20;99655.21;;;9.89;100.00
62928;BME280;51070;52.236;-0.892;2023-03-16T08:21:45;99659.21;;;9.90;100.00
62928;BME280;51070;52.236;-0.892;2023-03-16T08:24:10;99661.04;;;9.96;100.00
62928;BME280;51070;52.236;-0.892;2023-03-16T08:26:36;99652.88;;;10.03;100.00
62928;BME280;51070;52.236;-0.892;2023-03-16T08:29:01;99650.04;;;10.08;100.00
62928;BME280;51070;52.236;-0.892;2023-03-16T08:31:28;99656.59;;;10.08;100.00
62928;BME280;51070;52.236;-0.892;2023-03-16T08:33:55;99660.02;;;10.16;100.00
62928;BME280;51070;52.236;-0.892;2023-03-16T08:36:21;99658.45;;;10.24;100.00
62928;BME280;51070;52.236;-0.892;2023-03-16T08:38:47;99656.55;;;10.24;100.00
62928;BME280;51070;52.236;-0.892;2023-03-16T08:41:13;99657.73;;;10.22;100.00
62928;BME280;51070;52.236;-0.892;2023-03-16T08:43:40;99654.95;;;10.22;100.00
62928;BME280;51070;52.236;-0.892;2023-03-16T08:46:06;99645.98;;;10.23;100.00
62928;BME280;51070;52.236;-0.892;2023-03-16T08:48:32;99646.38;;;10.26;100.00
62928;BME280;51070;52.236;-0.892;2023-03-16T08:51:03;99646.89;;;10.26;100.00
62928;BME280;51070;52.236;-0.892;2023-03-16T08:53:28;99654.67;;;10.26;100.00
62928;BME280;51070;52.236;-0.892;2023-03-16T08:56:08;99649.33;;;10.26;100.00
62928;BME280;51070;52.236;-0.892;2023-03-16T08:58:34;99649.50;;;10.27;100.00
62928;BME280;51070;52.236;-0.892;2023-03-16T09:01:01;99649.14;;;10.26;100.00
62928;BME280;51070;52.236;-0.892;2023-03-16T09:03:28;99647.09;;;10.27;100.00
62928;BME280;51070;52.236;-0.892;2023-03-16T09:05:59;99640.54;;;10.27;100.00
62928;BME280;51070;52.236;-0.892;2023-03-16T09:08:25;99641.77;;;10.28;100.00
62928;BME280;51070;52.236;-0.892;2023-03-16T09:11:01;99640.73;;;10.29;100.00
62928;BME280;51070;52.236;-0.892;2023-03-16T09:13:28;99648.51;;;10.29;100.00
62928;BME280;51070;52.236;-0.892;2023-03-16T09:15:55;99654.48;;;10.24;100.00
62928;BME280;51070;52.236;-0.892;2023-03-16T09:18:22;99644.23;;;10.22;100.00
62928;BME280;51070;52.236;-0.892;2023-03-16T09:20:48;99643.55;;;10.21;100.00
62928;BME280;51070;52.236;-0.892;2023-03-16T09:23:14;99639.91;;;10.21;100.00
62928;BME280;51070;52.236;-0.892;2023-03-16T09:25:40;99642.70;;;10.22;100.00
62928;BME280;51070;52.236;-0.892;2023-03-16T09:28:05;99645.63;;;10.22;100.00
62928;BME280;51070;52.236;-0.892;2023-03-16T09:30:31;99645.48;;;10.24;100.00
62928;BME280;51070;52.236;-0.892;2023-03-16T09:32:57;99644.52;;;10.28;100.00
62928;BME280;51070;52.236;-0.892;2023-03-16T09:35:23;99642.44;;;10.38;100.00
62928;BME280;51070;52.236;-0.892;2023-03-16T09:37:49;99647.63;;;10.49;100.00
62928;BME280;51070;52.236;-0.892;2023-03-16T09:40:25;99645.98;;;10.55;100.00
62928;BME280;51070;52.236;-0.892;2023-03-16T09:43:02;99647.95;;;10.59;99.90
62928;BME280;51070;52.236;-0.892;2023-03-16T09:48:19;99653.09;;;10.68;99.35
62928;BME280;51070;52.236;-0.892;2023-03-16T09:50:46;99648.76;;;10.67;99.74
62928;BME280;51070;52.236;-0.892;2023-03-16T09:53:33;99649.11;;;10.67;99.16
62928;BME280;51070;52.236;-0.892;2023-03-16T09:56:14;99651.02;;;10.68;99.24
62928;BME280;51070;52.236;-0.892;2023-03-16T09:58:40;99647.57;;;10.68;99.63
62928;BME280;51070;52.236;-0.892;2023-03-16T10:01:18;99638.94;;;10.70;99.43
62928;BME280;51070;52.236;-0.892;2023-03-16T10:06:26;99638.30;;;10.73;98.54
62928;BME280;51070;52.236;-0.892;2023-03-16T10:11:48;99635.79;;;10.79;98.60
62928;BME280;51070;52.236;-0.892;2023-03-16T10:14:50;99634.02;;;10.87;98.77
62928;BME280;51070;52.236;-0.892;2023-03-16T10:17:30;99627.03;;;10.95;97.32
62928;BME280;51070;52.236;-0.892;2023-03-16T10:20:02;99619.03;;;10.92;96.59
62928;BME280;51070;52.236;-0.892;2023-03-16T10:22:38;99618.80;;;10.88;96.61
62928;BME280;51070;52.236;-0.892;2023-03-16T10:25:18;99623.59;;;10.84;97.09
62928;BME280;51070;52.236;-0.892;2023-03-16T10:27:46;99625.04;;;10.76;97.12
62928;BME280;51070;52.236;-0.892;2023-03-16T10:32:53;99616.02;;;10.74;97.14
62928;BME280;51070;52.236;-0.892;2023-03-16T10:37:54;99614.39;;;10.81;96.62
62928;BME280;51070;52.236;-0.892;2023-03-16T10:40:21;99612.34;;;10.82;96.50
62928;BME280;51070;52.236;-0.892;2023-03-16T10:42:48;99608.90;;;10.83;95.72
62928;BME280;51070;52.236;-0.892;2023-03-16T10:45:26;99607.52;;;10.83;96.22
62928;BME280;51070;52.236;-0.892;2023-03-16T10:47:53;99599.45;;;10.87;96.42
62928;BME280;51070;52.236;-0.892;2023-03-16T10:50:30;99594.86;;;10.94;95.35
62928;BME280;51070;52.236;-0.892;2023-03-16T10:52:58;99587.03;;;11.04;94.48
62928;BME280;51070;52.236;-0.892;2023-03-16T10:55:30;99587.70;;;11.15;93.87
62928;BME280;51070;52.236;-0.892;2023-03-16T10:57:59;99587.59;;;11.22;92.92
62928;BME280;51070;52.236;-0.892;2023-03-16T11:00:37;99594.44;;;11.31;92.61
62928;BME280;51070;52.236;-0.892;2023-03-16T11:03:19;99591.92;;;11.38;92.00
62928;BME280;51070;52.236;-0.892;2023-03-16T11:05:47;99597.72;;;11.46;91.22
62928;BME280;51070;52.236;-0.892;2023-03-16T11:08:24;99601.26;;;11.53;90.70
62928;BME280;51070;52.236;-0.892;2023-03-16T11:10:55;99593.92;;;11.64;90.70
62928;BME280;51070;52.236;-0.892;2023-03-16T11:13:32;99589.93;;;11.76;89.55
62928;BME280;51070;52.236;-0.892;2023-03-16T11:18:53;99572.39;;;11.90;87.58
62928;BME280;51070;52.236;-0.892;2023-03-16T11:21:36;99579.46;;;11.87;88.11
62928;BME280;51070;52.236;-0.892;2023-03-16T11:24:04;99575.60;;;11.81;88.58
62928;BME280;51070;52.236;-0.892;2023-03-16T11:26:37;99570.73;;;11.79;88.03
62928;BME280;51070;52.236;-0.892;2023-03-16T11:29:18;99574.98;;;11.88;87.59
62928;BME280;51070;52.236;-0.892;2023-03-16T11:31:55;99574.21;;;12.00;86.86
62928;BME280;51070;52.236;-0.892;2023-03-16T11:34:26;99550.96;;;12.16;86.12
62928;BME280;51070;52.236;-0.892;2023-03-16T11:36:59;99548.17;;;12.40;85.66
62928;BME280;51070;52.236;-0.892;2023-03-16T11:39:40;99550.55;;;12.63;84.74
62928;BME280;51070;52.236;-0.892;2023-03-16T11:42:15;99557.56;;;12.77;82.91
62928;BME280;51070;52.236;-0.892;2023-03-16T11:52:59;99568.34;;;12.81;80.48
62928;BME280;51070;52.236;-0.892;2023-03-16T12:05:52;99545.47;;;12.52;81.01
62928;BME280;51070;52.236;-0.892;2023-03-16T12:11:32;99544.28;;;12.57;80.29
62928;BME280;51070;52.236;-0.892;2023-03-16T12:16:57;99542.98;;;12.73;80.35
62928;BME280;51070;52.236;-0.892;2023-03-16T12:22:30;99541.40;;;13.11;76.58
62928;BME280;51070;52.236;-0.892;2023-03-16T12:24:57;99535.88;;;13.14;76.11
62928;BME280;51070;52.236;-0.892;2023-03-16T12:27:27;99536.78;;;13.23;75.47
62928;BME280;51070;52.236;-0.892;2023-03-16T12:32:56;99540.47;;;13.44;75.72
62928;BME280;51070;52.236;-0.892;2023-03-16T12:49:34;99522.98;;;13.76;72.10
62928;BME280;51070;52.236;-0.892;2023-03-16T12:52:04;99516.38;;;13.77;71.92
62928;BME280;51070;52.236;-0.892;2023-03-16T12:54:30;99520.03;;;13.84;71.91
62928;BME280;51070;52.236;-0.892;2023-03-16T12:57:06;99521.94;;;13.94;71.63
62928;BME280;51070;52.236;-0.892;2023-03-16T12:59:41;99519.66;;;14.01;70.17
62928;BME280;51070;52.236;-0.892;2023-03-16T13:02:23;99514.80;;;14.02;69.25
62928;BME280;51070;52.236;-0.892;2023-03-16T13:05:11;99496.55;;;14.14;68.98
62928;BME280;51070;52.236;-0.892;2023-03-16T13:07:48;99493.57;;;14.38;68.81
62928;BME280;51070;52.236;-0.892;2023-03-16T13:10:16;99487.64;;;14.32;67.97
62928;BME280;51070;52.236;-0.892;2023-03-16T13:12:45;99493.76;;;14.18;68.21
62928;BME280;51070;52.236;-0.892;2023-03-16T13:20:59;99467.91;;;13.95;68.51
62928;BME280;51070;52.236;-0.892;2023-03-16T13:23:57;99467.40;;;13.93;69.05
62928;BME280;51070;52.236;-0.892;2023-03-16T13:26:41;99476.60;;;13.93;68.92
62928;BME280;51070;52.236;-0.892;2023-03-16T13:29:28;99480.25;;;13.93;69.16
62928;BME280;51070;52.236;-0.892;2023-03-16T13:32:01;99483.03;;;13.80;69.09
62928;BME280;51070;52.236;-0.892;2023-03-16T13:34:30;99478.01;;;13.72;69.68
62928;BME280;51070;52.236;-0.892;2023-03-16T13:36:58;99469.84;;;13.67;69.69
62928;BME280;51070;52.236;-0.892;2023-03-16T13:39:30;99463.60;;;13.73;70.27
62928;BME280;51070;52.236;-0.892;2023-03-16T13:42:16;99463.42;;;13.79;70.29
62928;BME280;51070;52.236;-0.892;2023-03-16T13:44:42;99465.31;;;13.78;70.01
62928;BME280;51070;52.236;-0.892;2023-03-16T13:47:16;99466.72;;;13.69;69.98
62928;BME280;51070;52.236;-0.892;2023-03-16T13:49:56;99458.91;;;13.62;70.12
62928;BME280;51070;52.236;-0.892;2023-03-16T13:52:27;99461.51;;;13.49;70.44
62928;BME280;51070;52.236;-0.892;2023-03-16T13:54:55;99463.41;;;13.39;70.83
62928;BME280;51070;52.236;-0.892;2023-03-16T13:57:24;99455.61;;;13.37;72.10
62928;BME280;51070;52.236;-0.892;2023-03-16T13:59:59;99455.60;;;13.33;72.84
62928;BME280;51070;52.236;-0.892;2023-03-16T14:02:26;99455.07;;;13.23;72.88
62928;BME280;51070;52.236;-0.892;2023-03-16T14:04:52;99465.46;;;13.14;72.51